sensor_id;sensor_type;location;lat;lon;timestamp;temperature;humidity
4376;DHT22;2202;50.866;12.750;2022-11-09T00:00:36;12.30;68.80
4376;DHT22;2202;50.866;12.750;2022-11-09T00:03:04;12.30;68.40
4376;DHT22;2202;50.866;12.750;2022-11-09T00:05:31;12.30;68.20
4376;DHT22;2202;50.866;12.750;2022-11-09T00:07:58;12.30;67.80
4376;DHT22;2202;50.866;12.750;2022-11-09T00:10:25;12.40;68.20
4376;DHT22;2202;50.866;12.750;2022-11-09T00:12:52;12.30;68.40
4376;DHT22;2202;50.866;12.750;2022-11-09T00:15:18;12.40;68.20
4376;DHT22;2202;50.866;12.750;2022-11-09T00:17:45;12.40;68.00
4376;DHT22;2202;50.866;12.750;2022-11-09T00:20:14;12.50;67.80
4376;DHT22;2202;50.866;12.750;2022-11-09T00:22:41;12.50;67.40
4376;DHT22;2202;50.866;12.750;2022-11-09T00:25:08;12.50;67.60
4376;DHT22;2202;50.866;12.750;2022-11-09T00:27:35;12.60;67.20
4376;DHT22;2202;50.866;12.750;2022-11-09T00:30:02;12.60;67.00
4376;DHT22;2202;50.866;12.750;2022-11-09T00:32:29;12.70;66.80
4376;DHT22;2202;50.866;12.750;2022-11-09T00:34:56;12.70;66.40
4376;DHT22;2202;50.866;12.750;2022-11-09T00:37:24;12.70;66.60
4376;DHT22;2202;50.866;12.750;2022-11-09T00:39:51;12.80;65.80
4376;DHT22;2202;50.866;12.750;2022-11-09T00:42:18;12.80;66.00
4376;DHT22;2202;50.866;12.750;2022-11-09T00:44:45;12.80;66.00
4376;DHT22;2202;50.866;12.750;2022-11-09T00:47:12;12.80;65.80
4376;DHT22;2202;50.866;12.750;2022-11-09T00:49:39;12.80;65.60
4376;DHT22;2202;50.866;12.750;2022-11-09T00:52:05;12.80;65.40
4376;DHT22;2202;50.866;12.750;2022-11-09T00:54:34;12.80;65.00
4376;DHT22;2202;50.866;12.750;2022-11-09T00:57:00;12.80;65.00
4376;DHT22;2202;50.866;12.750;2022-11-09T00:59:27;12.80;64.60
4376;DHT22;2202;50.866;12.750;2022-11-09T01:01:54;12.80;64.60
4376;DHT22;2202;50.866;12.750;2022-11-09T01:04:21;12.80;64.40
4376;DHT22;2202;50.866;12.750;2022-11-09T01:06:48;12.80;64.60
4376;DHT22;2202;50.866;12.750;2022-11-09T01:09:15;12.80;64.40
4376;DHT22;2202;50.866;12.750;2022-11-09T01:11:43;12.80;64.20
4376;DHT22;2202;50.866;12.750;2022-11-09T01:14:10;12.80;64.40
4376;DHT22;2202;50.866;12.750;2022-11-09T01:16:38;12.80;64.20
4376;DHT22;2202;50.866;12.750;2022-11-09T01:19:05;12.80;63.80
4376;DHT22;2202;50.866;12.750;2022-11-09T01:21:32;12.80;64.00
4376;DHT22;2202;50.866;12.750;2022-11-09T01:23:59;12.80;63.60
4376;DHT22;2202;50.866;12.750;2022-11-09T01:26:27;12.80;63.40
4376;DHT22;2202;50.866;12.750;2022-11-09T01:28:55;12.80;63.80
4376;DHT22;2202;50.866;12.750;2022-11-09T01:31:22;12.80;63.20
4376;DHT22;2202;50.866;12.750;2022-11-09T01:33:49;12.80;63.40
4376;DHT22;2202;50.866;12.750;2022-11-09T01:36:19;12.80;62.80
4376;DHT22;2202;50.866;12.750;2022-11-09T01:38:46;12.80;63.20
4376;DHT22;2202;50.866;12.750;2022-11-09T01:41:15;12.90;62.80
4376;DHT22;2202;50.866;12.750;2022-11-09T01:43:42;12.90;62.80
4376;DHT22;2202;50.866;12.750;2022-11-09T01:46:19;12.90;62.60
4376;DHT22;2202;50.866;12.750;2022-11-09T01:48:50;13.00;62.20
4376;DHT22;2202;50.866;12.750;2022-11-09T01:51:23;13.00;62.00
4376;DHT22;2202;50.866;12.750;2022-11-09T01:54:03;13.00;61.60
4376;DHT22;2202;50.866;12.750;2022-11-09T01:56:32;13.00;61.80
4376;DHT22;2202;50.866;12.750;2022-11-09T01:59:02;13.10;61.60
4376;DHT22;2202;50.866;12.750;2022-11-09T02:01:31;13.10;61.60
4376;DHT22;2202;50.866;12.750;2022-11-09T02:04:02;13.00;61.60
4376;DHT22;2202;50.866;12.750;2022-11-09T02:06:30;13.00;61.20
4376;DHT22;2202;50.866;12.750;2022-11-09T02:09:03;13.00;61.60
4376;DHT22;2202;50.866;12.750;2022-11-09T02:11:34;13.10;61.60
4376;DHT22;2202;50.866;12.750;2022-11-09T02:14:02;13.10;61.60
4376;DHT22;2202;50.866;12.750;2022-11-09T02:16:31;13.10;61.20
4376;DHT22;2202;50.866;12.750;2022-11-09T02:18:59;13.10;61.60
4376;DHT22;2202;50.866;12.750;2022-11-09T02:21:29;13.10;61.20
4376;DHT22;2202;50.866;12.750;2022-11-09T02:23:56;13.10;61.20
4376;DHT22;2202;50.866;12.750;2022-11-09T02:26:25;13.10;60.80
4376;DHT22;2202;50.866;12.750;2022-11-09T02:28:55;13.10;60.60
4376;DHT22;2202;50.866;12.750;2022-11-09T02:31:25;13.20;60.80
4376;DHT22;2202;50.866;12.750;2022-11-09T02:33:54;13.20;60.80
4376;DHT22;2202;50.866;12.750;2022-11-09T02:36:26;13.10;61.20
4376;DHT22;2202;50.866;12.750;2022-11-09T02:38:54;13.10;60.80
4376;DHT22;2202;50.866;12.750;2022-11-09T02:41:22;13.10;60.80
4376;DHT22;2202;50.866;12.750;2022-11-09T02:43:51;13.10;60.80
4376;DHT22;2202;50.866;12.750;2022-11-09T02:46:23;13.10;61.60
4376;DHT22;2202;50.866;12.750;2022-11-09T02:48:50;13.10;61.20
4376;DHT22;2202;50.866;12.750;2022-11-09T02:51:17;13.10;61.20
4376;DHT22;2202;50.866;12.750;2022-11-09T02:53:46;13.10;61.20
4376;DHT22;2202;50.866;12.750;2022-11-09T02:56:13;13.10;61.60
4376;DHT22;2202;50.866;12.750;2022-11-09T02:58:39;13.10;61.20
4376;DHT22;2202;50.866;12.750;2022-11-09T03:01:06;13.10;62.00
4376;DHT22;2202;50.866;12.750;2022-11-09T03:03:33;13.10;61.60
4376;DHT22;2202;50.866;12.750;2022-11-09T03:06:00;13.10;62.20
4376;DHT22;2202;50.866;12.750;2022-11-09T03:08:27;13.00;62.40
4376;DHT22;2202;50.866;12.750;2022-11-09T03:10:57;13.00;62.40
4376;DHT22;2202;50.866;12.750;2022-11-09T03:13:24;13.00;62.20
4376;DHT22;2202;50.866;12.750;2022-11-09T03:15:51;12.90;62.80
4376;DHT22;2202;50.866;12.750;2022-11-09T03:18:18;12.90;62.40
4376;DHT22;2202;50.866;12.750;2022-11-09T03:20:44;12.90;62.80
4376;DHT22;2202;50.866;12.750;2022-11-09T03:23:11;12.80;63.60
4376;DHT22;2202;50.866;12.750;2022-11-09T03:25:38;12.70;63.40
4376;DHT22;2202;50.866;12.750;2022-11-09T03:28:07;12.60;64.40
4376;DHT22;2202;50.866;12.750;2022-11-09T03:30:34;12.60;65.00
4376;DHT22;2202;50.866;12.750;2022-11-09T03:33:02;12.60;65.20
4376;DHT22;2202;50.866;12.750;2022-11-09T03:35:30;12.50;65.40
4376;DHT22;2202;50.866;12.750;2022-11-09T03:37:57;12.50;64.60
4376;DHT22;2202;50.866;12.750;2022-11-09T03:40:23;12.50;65.40
4376;DHT22;2202;50.866;12.750;2022-11-09T03:42:50;12.50;65.20
4376;DHT22;2202;50.866;12.750;2022-11-09T03:45:18;12.40;65.60
4376;DHT22;2202;50.866;12.750;2022-11-09T03:47:46;12.40;65.60
4376;DHT22;2202;50.866;12.750;2022-11-09T03:50:14;12.50;66.00
4376;DHT22;2202;50.866;12.750;2022-11-09T03:52:43;12.40;66.00
4376;DHT22;2202;50.866;12.750;2022-11-09T03:55:11;12.40;66.40
4376;DHT22;2202;50.866;12.750;2022-11-09T03:57:39;12.40;67.20
4376;DHT22;2202;50.866;12.750;2022-11-09T04:00:07;12.40;67.00
4376;DHT22;2202;50.866;12.750;2022-11-09T04:02:36;12.30;67.60
4376;DHT22;2202;50.866;12.750;2022-11-09T04:05:03;12.30;68.40
4376;DHT22;2202;50.866;12.750;2022-11-09T04:07:30;12.30;67.80
4376;DHT22;2202;50.866;12.750;2022-11-09T04:09:57;12.30;67.80
4376;DHT22;2202;50.866;12.750;2022-11-09T04:12:24;12.30;67.20
4376;DHT22;2202;50.866;12.750;2022-11-09T04:14:50;12.30;66.80
4376;DHT22;2202;50.866;12.750;2022-11-09T04:17:17;12.30;67.00
4376;DHT22;2202;50.866;12.750;2022-11-09T04:19:45;12.30;67.40
4376;DHT22;2202;50.866;12.750;2022-11-09T04:22:12;12.30;67.60
4376;DHT22;2202;50.866;12.750;2022-11-09T04:24:39;12.30;67.00
4376;DHT22;2202;50.866;12.750;2022-11-09T04:27:06;12.30;67.00
4376;DHT22;2202;50.866;12.750;2022-11-09T04:29:33;12.20;67.40
4376;DHT22;2202;50.866;12.750;2022-11-09T04:32:00;12.20;67.80
4376;DHT22;2202;50.866;12.750;2022-11-09T04:34:26;12.10;68.00
4376;DHT22;2202;50.866;12.750;2022-11-09T04:36:54;12.00;68.00
4376;DHT22;2202;50.866;12.750;2022-11-09T04:39:21;12.00;68.40
4376;DHT22;2202;50.866;12.750;2022-11-09T04:41:48;12.00;68.60
4376;DHT22;2202;50.866;12.750;2022-11-09T04:44:15;11.90;69.00
4376;DHT22;2202;50.866;12.750;2022-11-09T04:46:42;12.00;69.00
4376;DHT22;2202;50.866;12.750;2022-11-09T04:49:09;12.00;68.80
4376;DHT22;2202;50.866;12.750;2022-11-09T04:51:35;11.90;69.20
4376;DHT22;2202;50.866;12.750;2022-11-09T04:54:04;11.70;71.40
4376;DHT22;2202;50.866;12.750;2022-11-09T04:56:30;11.70;71.20
4376;DHT22;2202;50.866;12.750;2022-11-09T04:58:57;11.70;70.80
4376;DHT22;2202;50.866;12.750;2022-11-09T05:01:24;11.70;69.60
4376;DHT22;2202;50.866;12.750;2022-11-09T05:03:51;11.80;68.80
4376;DHT22;2202;50.866;12.750;2022-11-09T05:06:18;11.90;67.20
4376;DHT22;2202;50.866;12.750;2022-11-09T05:09:00;12.00;66.20
4376;DHT22;2202;50.866;12.750;2022-11-09T05:11:28;12.00;66.80
4376;DHT22;2202;50.866;12.750;2022-11-09T05:13:55;12.00;66.00
4376;DHT22;2202;50.866;12.750;2022-11-09T05:16:23;12.10;65.20
4376;DHT22;2202;50.866;12.750;2022-11-09T05:18:50;12.20;65.20
4376;DHT22;2202;50.866;12.750;2022-11-09T05:21:17;12.20;64.80
4376;DHT22;2202;50.866;12.750;2022-11-09T05:23:44;12.10;65.40
4376;DHT22;2202;50.866;12.750;2022-11-09T05:26:37;12.10;65.00
4376;DHT22;2202;50.866;12.750;2022-11-09T05:29:06;12.10;65.60
4376;DHT22;2202;50.866;12.750;2022-11-09T05:31:34;12.10;65.20
4376;DHT22;2202;50.866;12.750;2022-11-09T05:34:02;12.00;66.20
4376;DHT22;2202;50.866;12.750;2022-11-09T05:36:29;12.00;66.40
4376;DHT22;2202;50.866;12.750;2022-11-09T05:38:58;11.90;68.00
4376;DHT22;2202;50.866;12.750;2022-11-09T05:41:25;11.80;67.40
4376;DHT22;2202;50.866;12.750;2022-11-09T05:43:54;11.80;67.20
4376;DHT22;2202;50.866;12.750;2022-11-09T05:46:21;11.80;67.40
4376;DHT22;2202;50.866;12.750;2022-11-09T05:48:47;11.80;67.40
4376;DHT22;2202;50.866;12.750;2022-11-09T05:51:14;11.80;67.40
4376;DHT22;2202;50.866;12.750;2022-11-09T05:53:41;11.80;67.60
4376;DHT22;2202;50.866;12.750;2022-11-09T05:56:10;11.90;68.40
4376;DHT22;2202;50.866;12.750;2022-11-09T05:58:37;11.90;68.40
4376;DHT22;2202;50.866;12.750;2022-11-09T06:01:06;11.90;68.20
4376;DHT22;2202;50.866;12.750;2022-11-09T06:03:33;11.90;68.40
4376;DHT22;2202;50.866;12.750;2022-11-09T06:06:00;12.00;68.20
4376;DHT22;2202;50.866;12.750;2022-11-09T06:08:28;12.00;68.00
4376;DHT22;2202;50.866;12.750;2022-11-09T06:10:59;12.00;68.60
4376;DHT22;2202;50.866;12.750;2022-11-09T06:13:26;12.10;69.80
4376;DHT22;2202;50.866;12.750;2022-11-09T06:15:54;12.10;69.80
4376;DHT22;2202;50.866;12.750;2022-11-09T06:18:24;12.10;70.20
4376;DHT22;2202;50.866;12.750;2022-11-09T06:20:51;12.10;70.80
4376;DHT22;2202;50.866;12.750;2022-11-09T06:23:19;12.10;71.40
4376;DHT22;2202;50.866;12.750;2022-11-09T06:25:50;12.10;71.40
4376;DHT22;2202;50.866;12.750;2022-11-09T06:28:17;12.10;72.20
4376;DHT22;2202;50.866;12.750;2022-11-09T06:30:44;12.10;72.40
4376;DHT22;2202;50.866;12.750;2022-11-09T06:33:11;12.00;73.20
4376;DHT22;2202;50.866;12.750;2022-11-09T06:35:39;12.00;73.00
4376;DHT22;2202;50.866;12.750;2022-11-09T06:38:08;12.00;74.00
4376;DHT22;2202;50.866;12.750;2022-11-09T06:40:35;12.00;73.60
4376;DHT22;2202;50.866;12.750;2022-11-09T06:43:02;11.90;74.40
4376;DHT22;2202;50.866;12.750;2022-11-09T06:45:30;11.80;74.60
4376;DHT22;2202;50.866;12.750;2022-11-09T06:47:58;11.80;74.80
4376;DHT22;2202;50.866;12.750;2022-11-09T06:50:28;11.90;74.80
4376;DHT22;2202;50.866;12.750;2022-11-09T06:52:57;11.90;75.00
4376;DHT22;2202;50.866;12.750;2022-11-09T06:55:24;11.90;75.80
4376;DHT22;2202;50.866;12.750;2022-11-09T06:57:51;11.90;76.20
4376;DHT22;2202;50.866;12.750;2022-11-09T07:00:19;12.00;76.60
4376;DHT22;2202;50.866;12.750;2022-11-09T07:02:46;12.00;76.40
4376;DHT22;2202;50.866;12.750;2022-11-09T07:05:13;12.10;76.20
4376;DHT22;2202;50.866;12.750;2022-11-09T07:07:40;12.10;76.40
4376;DHT22;2202;50.866;12.750;2022-11-09T07:10:08;12.10;77.00
4376;DHT22;2202;50.866;12.750;2022-11-09T07:12:35;12.10;77.60
4376;DHT22;2202;50.866;12.750;2022-11-09T07:15:03;12.00;77.40
4376;DHT22;2202;50.866;12.750;2022-11-09T07:17:31;12.10;77.60
4376;DHT22;2202;50.866;12.750;2022-11-09T07:19:58;12.10;76.80
4376;DHT22;2202;50.866;12.750;2022-11-09T07:22:26;12.20;77.60
4376;DHT22;2202;50.866;12.750;2022-11-09T07:24:53;12.20;77.60
4376;DHT22;2202;50.866;12.750;2022-11-09T07:27:22;12.20;77.40
4376;DHT22;2202;50.866;12.750;2022-11-09T07:29:49;12.20;77.80
4376;DHT22;2202;50.866;12.750;2022-11-09T07:32:15;12.20;78.40
4376;DHT22;2202;50.866;12.750;2022-11-09T07:34:42;12.20;78.20
4376;DHT22;2202;50.866;12.750;2022-11-09T07:37:10;12.20;78.60
4376;DHT22;2202;50.866;12.750;2022-11-09T07:39:37;12.10;79.40
4376;DHT22;2202;50.866;12.750;2022-11-09T07:42:04;12.20;79.60
4376;DHT22;2202;50.866;12.750;2022-11-09T07:44:33;12.10;80.20
4376;DHT22;2202;50.866;12.750;2022-11-09T07:47:00;12.10;79.60
4376;DHT22;2202;50.866;12.750;2022-11-09T07:49:27;12.10;80.00
4376;DHT22;2202;50.866;12.750;2022-11-09T07:51:53;12.10;80.20
4376;DHT22;2202;50.866;12.750;2022-11-09T07:54:20;12.10;80.40
4376;DHT22;2202;50.866;12.750;2022-11-09T07:56:47;12.10;80.60
4376;DHT22;2202;50.866;12.750;2022-11-09T07:59:14;12.10;82.00
4376;DHT22;2202;50.866;12.750;2022-11-09T08:01:42;12.00;84.60
4376;DHT22;2202;50.866;12.750;2022-11-09T08:04:09;11.80;87.00
4376;DHT22;2202;50.866;12.750;2022-11-09T08:06:36;11.60;88.60
4376;DHT22;2202;50.866;12.750;2022-11-09T08:09:03;11.50;90.10
4376;DHT22;2202;50.866;12.750;2022-11-09T08:11:30;11.40;90.70
4376;DHT22;2202;50.866;12.750;2022-11-09T08:13:57;11.40;91.50
4376;DHT22;2202;50.866;12.750;2022-11-09T08:16:24;11.40;91.90
4376;DHT22;2202;50.866;12.750;2022-11-09T08:18:52;11.40;91.60
4376;DHT22;2202;50.866;12.750;2022-11-09T08:21:19;11.40;91.90
4376;DHT22;2202;50.866;12.750;2022-11-09T08:23:46;11.40;92.20
4376;DHT22;2202;50.866;12.750;2022-11-09T08:26:13;11.40;92.20
4376;DHT22;2202;50.866;12.750;2022-11-09T08:28:39;11.40;92.40
4376;DHT22;2202;50.866;12.750;2022-11-09T08:31:07;11.40;92.50
4376;DHT22;2202;50.866;12.750;2022-11-09T08:33:38;11.50;92.70
4376;DHT22;2202;50.866;12.750;2022-11-09T08:36:11;11.40;92.90
4376;DHT22;2202;50.866;12.750;2022-11-09T08:38:38;11.50;92.70
4376;DHT22;2202;50.866;12.750;2022-11-09T08:41:05;11.50;92.70
4376;DHT22;2202;50.866;12.750;2022-11-09T08:43:32;11.50;92.50
4376;DHT22;2202;50.866;12.750;2022-11-09T08:45:59;11.50;92.00
4376;DHT22;2202;50.866;12.750;2022-11-09T08:48:26;11.40;92.40
4376;DHT22;2202;50.866;12.750;2022-11-09T08:50:54;11.40;92.30
4376;DHT22;2202;50.866;12.750;2022-11-09T08:53:23;11.50;92.20
4376;DHT22;2202;50.866;12.750;2022-11-09T08:55:51;11.40;92.40
4376;DHT22;2202;50.866;12.750;2022-11-09T08:58:19;11.40;92.40
4376;DHT22;2202;50.866;12.750;2022-11-09T09:00:46;11.40;92.40
4376;DHT22;2202;50.866;12.750;2022-11-09T09:03:12;11.40;92.70
4376;DHT22;2202;50.866;12.750;2022-11-09T09:05:39;11.50;92.70
4376;DHT22;2202;50.866;12.750;2022-11-09T09:08:06;11.60;92.70
4376;DHT22;2202;50.866;12.750;2022-11-09T09:10:37;11.60;92.70
4376;DHT22;2202;50.866;12.750;2022-11-09T09:13:04;11.60;92.60
4376;DHT22;2202;50.866;12.750;2022-11-09T09:15:32;11.70;92.30
4376;DHT22;2202;50.866;12.750;2022-11-09T09:17:59;11.80;92.30
4376;DHT22;2202;50.866;12.750;2022-11-09T09:20:26;11.80;92.30
4376;DHT22;2202;50.866;12.750;2022-11-09T09:22:53;11.90;92.20
4376;DHT22;2202;50.866;12.750;2022-11-09T09:25:20;12.00;92.30
4376;DHT22;2202;50.866;12.750;2022-11-09T09:27:48;12.00;92.40
4376;DHT22;2202;50.866;12.750;2022-11-09T09:30:15;12.10;92.30
4376;DHT22;2202;50.866;12.750;2022-11-09T09:32:42;12.20;91.90
4376;DHT22;2202;50.866;12.750;2022-11-09T09:35:09;12.30;92.50
4376;DHT22;2202;50.866;12.750;2022-11-09T09:37:36;12.40;91.80
4376;DHT22;2202;50.866;12.750;2022-11-09T09:40:03;12.40;92.10
4376;DHT22;2202;50.866;12.750;2022-11-09T09:42:33;12.50;91.70
4376;DHT22;2202;50.866;12.750;2022-11-09T09:45:06;12.50;91.60
4376;DHT22;2202;50.866;12.750;2022-11-09T09:47:45;12.60;91.10
4376;DHT22;2202;50.866;12.750;2022-11-09T09:50:17;12.60;90.80
4376;DHT22;2202;50.866;12.750;2022-11-09T09:52:52;12.60;90.60
4376;DHT22;2202;50.866;12.750;2022-11-09T09:55:24;12.70;91.10
4376;DHT22;2202;50.866;12.750;2022-11-09T09:57:54;12.70;90.70
4376;DHT22;2202;50.866;12.750;2022-11-09T10:00:25;12.80;90.90
4376;DHT22;2202;50.866;12.750;2022-11-09T10:02:53;12.80;90.70
4376;DHT22;2202;50.866;12.750;2022-11-09T10:05:38;12.70;90.80
4376;DHT22;2202;50.866;12.750;2022-11-09T10:08:12;12.60;90.60
4376;DHT22;2202;50.866;12.750;2022-11-09T10:10:44;12.60;90.60
4376;DHT22;2202;50.866;12.750;2022-11-09T10:13:36;12.60;90.70
4376;DHT22;2202;50.866;12.750;2022-11-09T10:16:13;12.60;90.50
4376;DHT22;2202;50.866;12.750;2022-11-09T10:19:07;12.50;90.90
4376;DHT22;2202;50.866;12.750;2022-11-09T10:21:44;12.70;91.00
4376;DHT22;2202;50.866;12.750;2022-11-09T10:24:21;12.90;91.50
4376;DHT22;2202;50.866;12.750;2022-11-09T10:26:51;13.10;90.70
4376;DHT22;2202;50.866;12.750;2022-11-09T10:29:22;13.30;90.30
4376;DHT22;2202;50.866;12.750;2022-11-09T10:31:52;13.30;87.80
4376;DHT22;2202;50.866;12.750;2022-11-09T10:34:20;13.20;87.60
4376;DHT22;2202;50.866;12.750;2022-11-09T10:36:57;13.20;88.40
4376;DHT22;2202;50.866;12.750;2022-11-09T10:39:28;13.20;87.40
4376;DHT22;2202;50.866;12.750;2022-11-09T10:41:59;13.20;88.80
4376;DHT22;2202;50.866;12.750;2022-11-09T10:44:25;13.30;88.00
4376;DHT22;2202;50.866;12.750;2022-11-09T10:47:06;13.20;86.40
4376;DHT22;2202;50.866;12.750;2022-11-09T10:49:33;13.30;86.80
4376;DHT22;2202;50.866;12.750;2022-11-09T10:52:00;13.30;88.00
4376;DHT22;2202;50.866;12.750;2022-11-09T10:54:29;13.20;86.40
4376;DHT22;2202;50.866;12.750;2022-11-09T10:57:02;13.20;86.00
4376;DHT22;2202;50.866;12.750;2022-11-09T10:59:43;13.10;86.60
4376;DHT22;2202;50.866;12.750;2022-11-09T11:02:40;13.10;87.00
4376;DHT22;2202;50.866;12.750;2022-11-09T11:05:29;13.20;85.40
4376;DHT22;2202;50.866;12.750;2022-11-09T11:07:56;13.20;86.20
4376;DHT22;2202;50.866;12.750;2022-11-09T11:10:24;13.20;86.40
4376;DHT22;2202;50.866;12.750;2022-11-09T11:15:42;13.20;86.20
4376;DHT22;2202;50.866;12.750;2022-11-09T11:18:16;13.20;86.40
4376;DHT22;2202;50.866;12.750;2022-11-09T11:20:44;13.30;86.20
4376;DHT22;2202;50.866;12.750;2022-11-09T11:23:13;13.40;85.60
4376;DHT22;2202;50.866;12.750;2022-11-09T11:25:57;13.40;85.80
4376;DHT22;2202;50.866;12.750;2022-11-09T11:28:32;13.50;86.00
4376;DHT22;2202;50.866;12.750;2022-11-09T11:31:00;13.70;85.20
4376;DHT22;2202;50.866;12.750;2022-11-09T11:33:29;13.90;84.20
4376;DHT22;2202;50.866;12.750;2022-11-09T11:36:03;13.90;84.20
4376;DHT22;2202;50.866;12.750;2022-11-09T11:38:39;13.90;84.00
4376;DHT22;2202;50.866;12.750;2022-11-09T11:41:22;13.90;82.40
4376;DHT22;2202;50.866;12.750;2022-11-09T11:43:57;14.00;83.20
4376;DHT22;2202;50.866;12.750;2022-11-09T11:46:34;14.00;84.00
4376;DHT22;2202;50.866;12.750;2022-11-09T11:52:13;14.10;83.60
4376;DHT22;2202;50.866;12.750;2022-11-09T11:54:50;14.20;84.60
4376;DHT22;2202;50.866;12.750;2022-11-09T11:57:30;14.20;83.40
4376;DHT22;2202;50.866;12.750;2022-11-09T12:00:08;14.20;84.00
4376;DHT22;2202;50.866;12.750;2022-11-09T12:08:55;14.10;83.00
4376;DHT22;2202;50.866;12.750;2022-11-09T12:11:39;13.90;83.60
4376;DHT22;2202;50.866;12.750;2022-11-09T12:14:15;13.90;84.60
4376;DHT22;2202;50.866;12.750;2022-11-09T12:16:48;13.90;84.80
4376;DHT22;2202;50.866;12.750;2022-11-09T12:19:33;14.00;83.40
4376;DHT22;2202;50.866;12.750;2022-11-09T12:22:06;13.80;84.00
4376;DHT22;2202;50.866;12.750;2022-11-09T12:24:42;13.70;85.80
4376;DHT22;2202;50.866;12.750;2022-11-09T12:27:41;13.80;86.80
4376;DHT22;2202;50.866;12.750;2022-11-09T12:30:13;13.90;84.60
4376;DHT22;2202;50.866;12.750;2022-11-09T12:32:45;13.90;84.20
4376;DHT22;2202;50.866;12.750;2022-11-09T12:35:23;13.90;84.20
4376;DHT22;2202;50.866;12.750;2022-11-09T12:37:56;13.90;84.60
4376;DHT22;2202;50.866;12.750;2022-11-09T12:40:29;14.00;83.80
4376;DHT22;2202;50.866;12.750;2022-11-09T12:43:03;14.00;83.80
4376;DHT22;2202;50.866;12.750;2022-11-09T12:45:32;13.90;84.60
4376;DHT22;2202;50.866;12.750;2022-11-09T12:48:02;14.00;84.80
4376;DHT22;2202;50.866;12.750;2022-11-09T12:50:31;14.00;85.20
4376;DHT22;2202;50.866;12.750;2022-11-09T12:52:59;14.00;85.40
4376;DHT22;2202;50.866;12.750;2022-11-09T12:55:36;14.00;85.40
4376;DHT22;2202;50.866;12.750;2022-11-09T12:58:05;14.10;85.60
4376;DHT22;2202;50.866;12.750;2022-11-09T13:00:46;14.00;85.00
4376;DHT22;2202;50.866;12.750;2022-11-09T13:03:20;13.90;84.20
4376;DHT22;2202;50.866;12.750;2022-11-09T13:05:47;13.80;84.40
4376;DHT22;2202;50.866;12.750;2022-11-09T13:08:18;13.80;84.40
4376;DHT22;2202;50.866;12.750;2022-11-09T13:11:07;13.80;84.60
4376;DHT22;2202;50.866;12.750;2022-11-09T13:13:34;13.80;83.80
4376;DHT22;2202;50.866;12.750;2022-11-09T13:18:51;13.70;85.20
4376;DHT22;2202;50.866;12.750;2022-11-09T13:21:37;13.60;85.60
4376;DHT22;2202;50.866;12.750;2022-11-09T13:27:43;13.60;85.40
4376;DHT22;2202;50.866;12.750;2022-11-09T13:30:37;13.60;84.20
4376;DHT22;2202;50.866;12.750;2022-11-09T13:33:25;13.60;84.60
4376;DHT22;2202;50.866;12.750;2022-11-09T13:36:14;13.50;85.40
4376;DHT22;2202;50.866;12.750;2022-11-09T13:38:41;13.50;85.20
4376;DHT22;2202;50.866;12.750;2022-11-09T13:41:41;13.60;84.60
4376;DHT22;2202;50.866;12.750;2022-11-09T13:44:21;13.60;85.20
4376;DHT22;2202;50.866;12.750;2022-11-09T13:46:49;13.70;84.80
4376;DHT22;2202;50.866;12.750;2022-11-09T13:49:42;13.70;84.80
4376;DHT22;2202;50.866;12.750;2022-11-09T13:52:48;13.80;83.80
4376;DHT22;2202;50.866;12.750;2022-11-09T13:55:20;13.70;84.60
4376;DHT22;2202;50.866;12.750;2022-11-09T13:57:48;13.70;84.40
4376;DHT22;2202;50.866;12.750;2022-11-09T14:00:19;13.70;84.00
4376;DHT22;2202;50.866;12.750;2022-11-09T14:02:56;13.60;84.40
4376;DHT22;2202;50.866;12.750;2022-11-09T14:05:25;13.70;84.60
4376;DHT22;2202;50.866;12.750;2022-11-09T14:07:53;13.70;84.00
4376;DHT22;2202;50.866;12.750;2022-11-09T14:10:31;13.70;84.00
4376;DHT22;2202;50.866;12.750;2022-11-09T14:13:17;13.70;84.20
4376;DHT22;2202;50.866;12.750;2022-11-09T14:15:53;13.70;83.80
4376;DHT22;2202;50.866;12.750;2022-11-09T14:18:30;13.80;83.80
4376;DHT22;2202;50.866;12.750;2022-11-09T14:21:06;13.70;84.20
4376;DHT22;2202;50.866;12.750;2022-11-09T14:23:36;13.80;83.60
4376;DHT22;2202;50.866;12.750;2022-11-09T14:26:07;13.70;83.60
4376;DHT22;2202;50.866;12.750;2022-11-09T14:28:34;13.80;83.60
4376;DHT22;2202;50.866;12.750;2022-11-09T14:31:03;13.80;83.20
4376;DHT22;2202;50.866;12.750;2022-11-09T14:33:32;13.80;83.20
4376;DHT22;2202;50.866;12.750;2022-11-09T14:36:01;13.70;83.60
4376;DHT22;2202;50.866;12.750;2022-11-09T14:38:32;13.70;83.60
4376;DHT22;2202;50.866;12.750;2022-11-09T14:41:00;13.60;84.60
4376;DHT22;2202;50.866;12.750;2022-11-09T14:43:29;13.60;84.60
4376;DHT22;2202;50.866;12.750;2022-11-09T14:45:59;13.50;84.20
4376;DHT22;2202;50.866;12.750;2022-11-09T14:48:30;13.40;84.80
4376;DHT22;2202;50.866;12.750;2022-11-09T14:51:00;13.40;85.60
4376;DHT22;2202;50.866;12.750;2022-11-09T14:53:29;13.30;85.40
4376;DHT22;2202;50.866;12.750;2022-11-09T14:55:58;13.20;85.20
4376;DHT22;2202;50.866;12.750;2022-11-09T14:58:29;13.20;85.40
4376;DHT22;2202;50.866;12.750;2022-11-09T15:01:07;13.10;85.80
4376;DHT22;2202;50.866;12.750;2022-11-09T15:03:36;13.00;86.00
4376;DHT22;2202;50.866;12.750;2022-11-09T15:06:07;13.00;86.40
4376;DHT22;2202;50.866;12.750;2022-11-09T15:08:36;12.90;87.00
4376;DHT22;2202;50.866;12.750;2022-11-09T15:11:05;12.80;87.00
4376;DHT22;2202;50.866;12.750;2022-11-09T15:13:34;12.70;87.60
4376;DHT22;2202;50.866;12.750;2022-11-09T15:16:02;12.70;87.80
4376;DHT22;2202;50.866;12.750;2022-11-09T15:18:32;12.70;88.20
4376;DHT22;2202;50.866;12.750;2022-11-09T15:21:20;12.60;88.40
4376;DHT22;2202;50.866;12.750;2022-11-09T15:24:04;12.60;87.80
4376;DHT22;2202;50.866;12.750;2022-11-09T15:26:36;12.60;87.40
4376;DHT22;2202;50.866;12.750;2022-11-09T15:29:26;12.60;87.20
4376;DHT22;2202;50.866;12.750;2022-11-09T15:31:58;12.70;86.80
4376;DHT22;2202;50.866;12.750;2022-11-09T15:34:27;12.70;86.80
4376;DHT22;2202;50.866;12.750;2022-11-09T15:36:56;12.70;86.80
4376;DHT22;2202;50.866;12.750;2022-11-09T15:39:24;12.70;86.60
4376;DHT22;2202;50.866;12.750;2022-11-09T15:41:51;12.70;86.80
4376;DHT22;2202;50.866;12.750;2022-11-09T15:44:18;12.70;86.80
4376;DHT22;2202;50.866;12.750;2022-11-09T15:46:48;12.70;87.40
4376;DHT22;2202;50.866;12.750;2022-11-09T15:49:19;12.60;87.40
4376;DHT22;2202;50.866;12.750;2022-11-09T15:51:47;12.60;88.00
4376;DHT22;2202;50.866;12.750;2022-11-09T15:54:16;12.50;88.20
4376;DHT22;2202;50.866;12.750;2022-11-09T15:56:43;12.50;88.20
4376;DHT22;2202;50.866;12.750;2022-11-09T15:59:17;12.50;88.60
4376;DHT22;2202;50.866;12.750;2022-11-09T16:01:44;12.40;88.80
4376;DHT22;2202;50.866;12.750;2022-11-09T16:04:11;12.40;89.00
4376;DHT22;2202;50.866;12.750;2022-11-09T16:06:38;12.40;88.60
4376;DHT22;2202;50.866;12.750;2022-11-09T16:09:05;12.40;88.80
4376;DHT22;2202;50.866;12.750;2022-11-09T16:11:34;12.40;88.80
4376;DHT22;2202;50.866;12.750;2022-11-09T16:14:02;12.40;88.80
4376;DHT22;2202;50.866;12.750;2022-11-09T16:16:29;12.30;89.20
4376;DHT22;2202;50.866;12.750;2022-11-09T16:18:56;12.30;89.40
4376;DHT22;2202;50.866;12.750;2022-11-09T16:21:23;12.20;90.00